Time;durP1;ratioP1;P1;durP2;ratioP2;P2;SDS_P1;SDS_P2;PMS_P1;PMS_P2;Temp;Humidity;BMP_temperature;BMP_pressure;BME280_temperature;BME280_humidity;BME280_pressure;Samples;Min_cycle;Max_cycle;Signal;HPM_P1;HPM_P2
2023/12/31 00:01:38;;;;;;;35.03;22.67;;;9.00;99.90;;;;;;5109966;28;20090;-73
2023/12/31 00:04:05;;;;;;;31.55;23.48;;;9.00;99.90;;;;;;5118221;28;20019;-75
2023/12/31 00:06:30;;;;;;;32.92;22.50;;;9.00;99.90;;;;;;5117687;28;20019;-73
2023/12/31 00:08:56;;;;;;;26.35;21.88;;;9.00;99.90;;;;;;5117643;28;20028;-74
2023/12/31 00:11:21;;;;;;;34.92;23.05;;;9.00;99.90;;;;;;5115991;28;20039;-74
2023/12/31 00:13:47;;;;;;;30.55;21.55;;;9.00;99.90;;;;;;5117648;28;20027;-74
2023/12/31 00:16:14;;;;;;;31.98;21.42;;;9.10;99.90;;;;;;5111837;28;20045;-75
2023/12/31 00:18:40;;;;;;;27.00;21.20;;;9.10;99.90;;;;;;5117755;28;20023;-73
2023/12/31 00:21:06;;;;;;;28.40;21.08;;;9.10;99.90;;;;;;5115669;28;20033;-73
2023/12/31 00:23:32;;;;;;;34.08;22.15;;;9.10;99.90;;;;;;5117251;28;20023;-73
2023/12/31 00:25:58;;;;;;;31.00;23.33;;;9.10;99.90;;;;;;5117152;28;20074;-75
2023/12/31 00:28:23;;;;;;;28.50;20.95;;;9.10;99.90;;;;;;5117260;28;20070;-73
2023/12/31 00:30:49;;;;;;;27.50;20.40;;;9.10;99.90;;;;;;5115346;28;20038;-75
2023/12/31 00:33:15;;;;;;;30.20;21.83;;;9.10;99.90;;;;;;5115838;28;20019;-74
2023/12/31 00:35:40;;;;;;;27.98;20.50;;;9.20;99.90;;;;;;5116097;28;20070;-73
2023/12/31 00:38:06;;;;;;;25.42;19.23;;;9.20;99.90;;;;;;5117177;28;20024;-73
2023/12/31 00:40:32;;;;;;;26.42;21.30;;;9.30;99.90;;;;;;5117007;28;20032;-73
2023/12/31 00:42:57;;;;;;;27.60;20.52;;;9.20;99.90;;;;;;5116894;28;20016;-73
2023/12/31 00:45:23;;;;;;;30.48;21.80;;;9.30;99.90;;;;;;5117055;28;20031;-73
2023/12/31 00:47:48;;;;;;;27.85;21.45;;;9.20;99.90;;;;;;5115711;28;20027;-72
2023/12/31 00:50:14;;;;;;;28.95;20.05;;;9.30;99.90;;;;;;5115502;28;20510;-74
2023/12/31 00:52:40;;;;;;;26.42;21.33;;;9.20;99.90;;;;;;5116711;28;20114;-76
2023/12/31 00:55:06;;;;;;;25.05;18.60;;;9.20;99.90;;;;;;5115379;28;20081;-73
2023/12/31 00:57:32;;;;;;;25.95;21.13;;;9.30;99.90;;;;;;5116615;28;20020;-76
2023/12/31 00:59:58;;;;;;;25.38;19.05;;;9.30;99.90;;;;;;5116952;28;20072;-74
2023/12/31 01:02:23;;;;;;;26.52;20.67;;;9.30;99.90;;;;;;5116311;28;20019;-74
2023/12/31 01:04:49;;;;;;;26.65;20.77;;;9.30;99.90;;;;;;5116650;28;20020;-74
2023/12/31 01:07:15;;;;;;;27.92;21.40;;;9.20;99.90;;;;;;5116613;28;20034;-75
2023/12/31 01:09:40;;;;;;;30.95;21.15;;;9.30;99.90;;;;;;5115135;28;20032;-75
2023/12/31 01:12:06;;;;;;;27.70;21.05;;;9.20;99.90;;;;;;5116548;28;20544;-75
2023/12/31 01:14:34;;;;;;;27.77;21.02;;;9.20;99.90;;;;;;5115121;28;20027;-76
2023/12/31 01:17:00;;;;;;;31.33;23.27;;;9.20;99.90;;;;;;5108904;28;20027;-74
2023/12/31 01:19:26;;;;;;;28.98;20.90;;;9.10;99.90;;;;;;5116342;28;20022;-75
2023/12/31 01:21:51;;;;;;;29.02;22.15;;;9.10;99.90;;;;;;5116289;28;20022;-74
2023/12/31 01:24:17;;;;;;;33.45;22.83;;;9.10;99.90;;;;;;5114749;28;20110;-76
2023/12/31 01:26:43;;;;;;;34.72;25.58;;;9.10;99.90;;;;;;5114400;28;20718;-74
2023/12/31 01:29:09;;;;;;;33.55;23.17;;;9.10;99.90;;;;;;5114537;28;20033;-74
2023/12/31 01:31:34;;;;;;;31.85;22.02;;;9.10;99.90;;;;;;5115955;28;20035;-74
2023/12/31 01:34:00;;;;;;;30.15;23.85;;;9.10;99.90;;;;;;5116198;28;20467;-73
2023/12/31 01:36:26;;;;;;;29.58;21.40;;;9.10;99.90;;;;;;5114686;28;20035;-73
2023/12/31 01:38:51;;;;;;;39.00;26.30;;;9.20;99.90;;;;;;5116261;28;20035;-74
2023/12/31 01:41:17;;;;;;;36.17;24.55;;;9.20;99.90;;;;;;5116039;28;20045;-73
2023/12/31 01:43:43;;;;;;;33.92;24.90;;;9.20;99.90;;;;;;5115973;28;20094;-73
2023/12/31 01:46:09;;;;;;;32.88;20.75;;;9.10;99.90;;;;;;5115963;28;20027;-74
2023/12/31 01:48:35;;;;;;;35.72;23.15;;;9.10;99.90;;;;;;5116045;28;20024;-74
2023/12/31 01:51:02;;;;;;;32.55;24.20;;;9.20;99.90;;;;;;5115963;28;20031;-75
2023/12/31 01:53:28;;;;;;;33.80;24.02;;;9.20;99.90;;;;;;5116011;28;20045;-74
2023/12/31 01:55:55;;;;;;;38.60;25.10;;;9.20;99.90;;;;;;5115488;28;20055;-76
2023/12/31 01:58:22;;;;;;;33.38;25.02;;;9.20;99.90;;;;;;5115535;28;20475;-75
2023/12/31 02:00:48;;;;;;;32.67;24.55;;;9.20;99.90;;;;;;5115627;28;20019;-77
2023/12/31 02:03:15;;;;;;;38.22;25.48;;;9.20;99.90;;;;;;5114002;28;20440;-76
2023/12/31 02:05:41;;;;;;;34.10;23.90;;;9.20;99.90;;;;;;5116007;28;20026;-75
2023/12/31 02:08:07;;;;;;;32.63;24.60;;;9.20;99.90;;;;;;5115610;28;20101;-75
2023/12/31 02:10:33;;;;;;;31.10;22.20;;;9.20;99.90;;;;;;5115789;28;20024;-75
2023/12/31 02:13:00;;;;;;;35.03;24.27;;;9.20;99.90;;;;;;5114170;28;20152;-76
2023/12/31 02:15:31;;;;;;;26.23;18.33;;;9.10;99.90;;;;;;5111543;28;20024;-77
2023/12/31 02:17:58;;;;;;;;;;;9.20;99.90;;;;;;5112386;28;20027;-75
2023/12/31 02:20:23;;;;;;;;;;;9.20;99.90;;;;;;5116123;28;19937;-76
2023/12/31 02:22:49;;;;;;;;;;;9.20;99.90;;;;;;5114129;28;19994;-76
2023/12/31 02:25:17;;;;;;;;;;;9.20;99.90;;;;;;5116277;28;19994;-74
2023/12/31 02:27:43;;;;;;;;;;;9.20;99.90;;;;;;5115504;28;19912;-74
2023/12/31 02:30:09;;;;;;;;;;;9.10;99.90;;;;;;5114618;28;19903;-75
2023/12/31 02:32:34;;;;;;;;;;;9.10;99.90;;;;;;5115809;28;19998;-77
2023/12/31 02:35:00;;;;;;;;;;;9.10;99.90;;;;;;5115677;27;19956;-76
2023/12/31 02:37:25;;;;;;;;;;;9.20;99.90;;;;;;5115772;28;19952;-74
2023/12/31 02:39:51;;;;;;;;;;;9.20;99.90;;;;;;5118219;28;19925;-76
2023/12/31 02:42:16;;;;;;;;;;;9.30;99.90;;;;;;5119552;28;19912;-75
2023/12/31 02:44:42;;;;;;;;;;;9.30;99.90;;;;;;5119833;28;19910;-75
2023/12/31 02:47:08;;;;;;;;;;;9.30;99.90;;;;;;5118413;28;19953;-73
2023/12/31 02:49:33;;;;;;;;;;;9.30;99.90;;;;;;5120049;28;19950;-74
2023/12/31 02:51:59;;;;;;;;;;;9.30;99.90;;;;;;5119462;28;19907;-73
2023/12/31 02:54:24;;;;;;;;;;;9.30;99.90;;;;;;5119892;28;19910;-74
2023/12/31 02:56:50;;;;;;;;;;;9.30;99.90;;;;;;5117927;28;19926;-75
2023/12/31 02:59:15;;;;;;;;;;;9.30;99.90;;;;;;5119803;28;19952;-74
2023/12/31 03:01:41;;;;;;;;;;;9.30;99.90;;;;;;5119581;28;19904;-74
2023/12/31 03:04:06;;;;;;;;;;;9.30;99.90;;;;;;5118247;28;19903;-74
2023/12/31 03:06:36;;;;;;;;;;;9.30;99.90;;;;;;5118092;28;19911;-74
2023/12/31 03:09:02;;;;;;;;;;;9.40;99.90;;;;;;5119343;28;19914;-74
2023/12/31 03:11:27;;;;;;;;;;;9.30;99.90;;;;;;5118821;28;20398;-75
2023/12/31 03:13:53;;;;;;;;;;;9.30;99.90;;;;;;5118101;28;19907;-76
2023/12/31 03:16:19;;;;;;;;;;;9.20;99.90;;;;;;5111513;28;19947;-73
2023/12/31 03:18:44;;;;;;;;;;;9.30;99.90;;;;;;5119201;28;19904;-74
2023/12/31 03:21:16;;;;;;;;;;;9.30;99.90;;;;;;5118719;28;19911;-74
2023/12/31 03:23:41;;;;;;;;;;;9.40;99.90;;;;;;5118994;28;20287;-74
2023/12/31 03:26:07;;;;;;;;;;;9.30;99.90;;;;;;5117774;28;19907;-74
2023/12/31 03:28:32;;;;;;;;;;;9.40;99.90;;;;;;5117430;28;20372;-75
2023/12/31 03:30:58;;;;;;;;;;;9.40;99.90;;;;;;5118330;28;20338;-75
2023/12/31 03:33:23;;;;;;;;;;;9.50;99.90;;;;;;5117679;28;20372;-73
2023/12/31 03:35:49;;;;;;;;;;;9.40;99.90;;;;;;5118464;28;20002;-73
2023/12/31 03:38:14;;;;;;;;;;;9.40;99.90;;;;;;5117536;28;19907;-74
2023/12/31 03:40:40;;;;;;;;;;;9.40;99.90;;;;;;5118510;28;20435;-74
2023/12/31 03:43:06;;;;;;;;;;;9.40;99.90;;;;;;5118497;28;19904;-74
2023/12/31 03:45:32;;;;;;;;;;;9.30;99.90;;;;;;5117080;28;19908;-73
2023/12/31 03:47:57;;;;;;;;;;;9.30;99.90;;;;;;5118697;28;20346;-74
2023/12/31 03:50:23;;;;;;;;;;;9.30;99.90;;;;;;5116958;28;20375;-76
2023/12/31 03:52:49;;;;;;;;;;;9.30;99.90;;;;;;5116903;28;20356;-74
2023/12/31 03:55:14;;;;;;;;;;;9.20;99.90;;;;;;5118480;28;19919;-74
2023/12/31 03:57:40;;;;;;;;;;;9.20;99.90;;;;;;5118353;28;19961;-76
2023/12/31 04:00:07;;;;;;;;;;;9.20;99.90;;;;;;5117092;28;19911;-74
2023/12/31 04:02:33;;;;;;;;;;;9.20;99.90;;;;;;5113136;28;19938;-73
2023/12/31 04:04:59;;;;;;;;;;;9.20;99.90;;;;;;5107393;28;20316;-73
2023/12/31 04:07:24;;;;;;;;;;;9.10;99.90;;;;;;5117719;28;19907;-74
2023/12/31 04:09:50;;;;;;;;;;;9.10;99.90;;;;;;5118252;28;19911;-74
2023/12/31 04:12:16;;;;;;;;;;;9.10;99.90;;;;;;5116472;28;19908;-73
2023/12/31 04:14:41;;;;;;;;;;;9.00;99.90;;;;;;5118392;28;19903;-73
2023/12/31 04:17:07;;;;;;;;;;;9.00;99.90;;;;;;5113740;28;19998;-73
2023/12/31 04:19:32;;;;;;;;;;;8.90;99.90;;;;;;5118335;27;19942;-73
2023/12/31 04:21:58;;;;;;;;;;;8.90;99.90;;;;;;5116476;28;19903;-73
2023/12/31 04:24:23;;;;;;;;;;;8.90;99.90;;;;;;5117842;28;19930;-73
2023/12/31 04:26:49;;;;;;;;;;;8.90;99.90;;;;;;5117684;28;19904;-74
2023/12/31 04:29:14;;;;;;;;;;;8.90;99.90;;;;;;5117764;28;19904;-74
2023/12/31 04:31:45;;;;;;;;;;;8.90;99.90;;;;;;5107557;28;19908;-73
2023/12/31 04:34:10;;;;;;;;;;;8.90;99.90;;;;;;5110747;28;19908;-73
2023/12/31 04:36:36;;;;;;;;;;;8.90;99.90;;;;;;5115480;28;19933;-74
2023/12/31 04:39:02;;;;;;;;;;;8.90;99.90;;;;;;5114543;28;19904;-75
2023/12/31 04:41:28;;;;;;;;;;;8.80;99.90;;;;;;5112297;28;19915;-74
2023/12/31 04:43:54;;;;;;;;;;;8.80;99.90;;;;;;5113616;28;19908;-74
2023/12/31 04:46:20;;;;;;;;;;;8.80;99.90;;;;;;5117345;28;19998;-74
2023/12/31 04:48:48;;;;;;;;;;;8.90;99.90;;;;;;5117094;28;19903;-73
2023/12/31 04:51:26;;;;;;;;;;;9.00;99.90;;;;;;5094213;28;19911;-73
2023/12/31 04:53:52;;;;;;;;;;;9.00;99.90;;;;;;5092597;28;19915;-74
2023/12/31 04:56:21;;;;;;;;;;;9.00;99.90;;;;;;5092166;28;19941;-74
2023/12/31 04:58:51;;;;;;;;;;;9.00;99.90;;;;;;5096520;28;19909;-73
2023/12/31 05:01:17;;;;;;;;;;;9.10;99.90;;;;;;5090198;28;19919;-74
2023/12/31 05:03:46;;;;;;;;;;;9.00;99.90;;;;;;5091118;28;19908;-74
2023/12/31 05:06:15;;;;;;;;;;;9.00;99.90;;;;;;5093829;28;19912;-74
2023/12/31 05:08:42;;;;;;;;;;;8.90;99.90;;;;;;5092227;28;19944;-74
2023/12/31 05:11:07;;;;;;;;;;;8.90;99.90;;;;;;5099531;28;19908;-74
2023/12/31 05:13:33;;;;;;;;;;;8.90;99.90;;;;;;5092118;28;19919;-74
2023/12/31 05:15:59;;;;;;;;;;;8.80;99.90;;;;;;5096180;28;19911;-74
2023/12/31 05:18:24;;;;;;;;;;;8.70;99.90;;;;;;5090565;28;19905;-75
2023/12/31 05:20:50;;;;;;;;;;;8.70;99.90;;;;;;5091857;28;19915;-74
2023/12/31 05:23:16;;;;;;;;;;;8.80;99.90;;;;;;5090549;28;20396;-74
2023/12/31 05:25:41;;;;;;;;;;;8.70;99.90;;;;;;5091757;28;19976;-74
2023/12/31 05:28:07;;;;;;;;;;;8.60;99.90;;;;;;5091786;28;19947;-74
2023/12/31 05:30:32;;;;;;;;;;;8.60;99.90;;;;;;5092503;28;20018;-74
2023/12/31 05:32:58;;;;;;;;;;;8.60;99.90;;;;;;5096395;28;20042;-75
2023/12/31 05:35:23;;;;;;;;;;;8.60;99.90;;;;;;5092001;28;19962;-74
2023/12/31 05:37:49;;;;;;;;;;;8.60;99.90;;;;;;5096600;28;19916;-74
2023/12/31 05:40:14;;;;;;;;;;;8.60;99.90;;;;;;5091801;28;19908;-74
2023/12/31 05:42:40;;;;;;;;;;;8.70;99.90;;;;;;5091303;28;19942;-74
2023/12/31 05:45:06;;;;;;;;;;;8.70;99.90;;;;;;5090060;28;20487;-74
2023/12/31 05:47:32;;;;;;;;;;;8.60;99.90;;;;;;5092973;28;20325;-74
2023/12/31 05:49:58;;;;;;;;;;;8.50;99.90;;;;;;5091447;28;19924;-75
2023/12/31 05:52:23;;;;;;;;;;;8.50;99.90;;;;;;5091334;28;19912;-75
2023/12/31 05:54:49;;;;;;;;;;;8.60;99.90;;;;;;5091303;28;19908;-75
2023/12/31 05:57:14;;;;;;;;;;;8.60;99.90;;;;;;5089825;28;19919;-74
2023/12/31 05:59:40;;;;;;;;;;;8.70;99.90;;;;;;5091534;28;19916;-74
2023/12/31 06:02:07;;;;;;;;;;;8.70;99.90;;;;;;5091570;28;19910;-74
2023/12/31 06:04:32;;;;;;;;;;;8.70;99.90;;;;;;5092893;28;19908;-75
2023/12/31 06:06:58;;;;;;;;;;;8.80;99.90;;;;;;5091141;28;19908;-75
2023/12/31 06:09:24;;;;;;;;;;;8.80;99.90;;;;;;5091300;28;19912;-75
2023/12/31 06:11:49;;;;;;;;;;;8.90;99.90;;;;;;5104992;28;20482;-74
2023/12/31 06:14:15;;;;;;;;;;;8.90;99.90;;;;;;5096226;28;19944;-74
2023/12/31 06:16:40;;;;;;;;;;;9.00;99.90;;;;;;5099544;28;19912;-75
2023/12/31 06:19:06;;;;;;;;;;;9.10;99.90;;;;;;5095960;28;19908;-75
2023/12/31 06:21:31;;;;;;;;;;;9.20;99.90;;;;;;5095528;28;19958;-74
2023/12/31 06:23:57;;;;;;;;;;;9.20;99.90;;;;;;5095336;28;19967;-74
2023/12/31 06:26:23;;;;;;;;;;;9.20;99.90;;;;;;5095338;28;19929;-74
2023/12/31 06:28:48;;;;;;;;;;;9.10;99.90;;;;;;5095616;28;19908;-75
2023/12/31 06:31:14;;;;;;;;;;;9.10;99.90;;;;;;5100185;28;20306;-75
2023/12/31 06:33:39;;;;;;;;;;;9.20;99.90;;;;;;5095029;28;19908;-74
2023/12/31 06:36:05;;;;;;;;;;;9.20;99.90;;;;;;5095180;28;20298;-74
2023/12/31 06:38:30;;;;;;;;;;;9.20;99.90;;;;;;5094163;28;20485;-74
2023/12/31 06:40:56;;;;;;;;;;;9.20;99.90;;;;;;5093597;28;19908;-74
2023/12/31 06:43:21;;;;;;;;;;;9.30;99.90;;;;;;5097609;28;19938;-79
2023/12/31 06:45:47;;;;;;;;;;;9.40;99.90;;;;;;5104335;27;19904;-85
2023/12/31 06:48:12;;;;;;;;;;;9.50;99.90;;;;;;5120980;27;19904;-88
2023/12/31 06:50:38;;;;;;;;;;;9.70;99.90;;;;;;5095250;28;19914;-83
2023/12/31 06:53:03;;;;;;;;;;;9.80;99.90;;;;;;5095453;28;19912;-86
2023/12/31 06:55:29;;;;;;;;;;;9.90;99.90;;;;;;5102417;28;19916;-84
2023/12/31 06:57:55;;;;;;;;;;;9.90;99.90;;;;;;5095729;28;19908;-83
2023/12/31 07:00:22;;;;;;;;;;;9.90;99.90;;;;;;5094136;28;19915;-91
2023/12/31 07:02:47;;;;;;;;;;;10.00;99.90;;;;;;5098654;28;19908;-88
2023/12/31 07:05:13;;;;;;;;;;;10.10;99.90;;;;;;5101656;28;20497;-90
2023/12/31 07:07:40;;;;;;;;;;;10.20;99.90;;;;;;5103096;28;19904;-90
2023/12/31 07:10:06;;;;;;;;;;;10.20;99.90;;;;;;5101532;28;19943;-89
2023/12/31 07:12:31;;;;;;;;;;;10.20;99.90;;;;;;5096508;28;19908;-88
2023/12/31 07:14:57;;;;;;;;;;;10.20;99.90;;;;;;5098645;28;19986;-89
2023/12/31 07:17:23;;;;;;;;;;;10.10;99.90;;;;;;5107809;28;19916;-90
2023/12/31 07:19:49;;;;;;;;;;;10.10;99.90;;;;;;5101078;28;19975;-88
2023/12/31 07:22:14;;;;;;;;;;;10.00;99.90;;;;;;5111039;28;20414;-86
2023/12/31 07:24:40;;;;;;;;;;;10.00;99.90;;;;;;5093730;28;20669;-86
2023/12/31 07:27:08;;;;;;;;;;;9.90;99.90;;;;;;5094283;28;20306;-85
2023/12/31 07:29:33;;;;;;;;;;;9.90;99.90;;;;;;5094764;28;19963;-88
2023/12/31 07:31:59;;;;;;;;;;;9.90;99.90;;;;;;5107540;28;20400;-90
2023/12/31 07:34:25;;;;;;;;;;;9.80;99.90;;;;;;5101853;28;19942;-91
2023/12/31 07:36:50;;;;;;;;;;;9.80;99.90;;;;;;5108375;28;19961;-92
2023/12/31 07:39:16;;;;;;;;;;;9.70;99.90;;;;;;5108858;28;19904;-91
2023/12/31 07:41:41;;;;;;;;;;;9.60;99.90;;;;;;5110464;28;19904;-91
2023/12/31 07:44:07;;;;;;;;;;;9.60;99.90;;;;;;5111081;28;19911;-91
2023/12/31 07:46:33;;;;;;;;;;;9.50;99.90;;;;;;5115793;28;19908;-90
2023/12/31 07:48:58;;;;;;;;;;;9.50;99.90;;;;;;5108657;28;19908;-90
2023/12/31 07:51:24;;;;;;;;;;;9.50;99.90;;;;;;5105866;28;19914;-89
2023/12/31 07:53:49;;;;;;;;;;;9.40;99.90;;;;;;5104448;28;19904;-89
2023/12/31 07:56:15;;;;;;;;;;;9.40;99.90;;;;;;5095884;28;19927;-89
2023/12/31 07:58:40;;;;;;;;;;;9.40;99.90;;;;;;5102275;28;20293;-85
2023/12/31 08:01:06;;;;;;;;;;;9.30;99.90;;;;;;5095455;28;20010;-85
2023/12/31 08:03:31;;;;;;;;;;;9.30;99.90;;;;;;5097915;28;19904;-93
2023/12/31 08:05:57;;;;;;;;;;;9.40;99.90;;;;;;5106445;28;19911;-87
2023/12/31 08:08:23;;;;;;;;;;;9.30;99.90;;;;;;5108838;28;19904;-88
2023/12/31 08:10:49;;;;;;;;;;;9.30;99.90;;;;;;5096470;28;20353;-92
2023/12/31 08:13:14;;;;;;;;;;;9.30;99.90;;;;;;5105126;28;19933;-90
2023/12/31 08:15:40;;;;;;;;;;;9.40;99.90;;;;;;5106690;28;19908;-86
2023/12/31 08:18:06;;;;;;;;;;;9.30;99.90;;;;;;5106286;28;19907;-89
2023/12/31 08:20:33;;;;;;;;;;;9.40;99.90;;;;;;5104785;28;19990;-91
2023/12/31 08:22:59;;;;;;;;;;;9.40;99.90;;;;;;5110798;28;19908;-88
2023/12/31 08:25:24;;;;;;;;;;;9.40;99.90;;;;;;5112103;27;19907;-89
2023/12/31 08:27:50;;;;;;;;;;;9.40;99.90;;;;;;5100981;28;20008;-90
2023/12/31 08:30:15;;;;;;;;;;;9.30;99.90;;;;;;5095345;28;19911;-89
2023/12/31 08:32:41;;;;;;;;;;;9.30;99.90;;;;;;5101132;28;20287;-89
2023/12/31 08:35:09;;;;;;;;;;;9.30;99.90;;;;;;5098390;28;19904;-89
2023/12/31 08:37:35;;;;;;;;;;;9.40;99.90;;;;;;5110932;28;19912;-85
2023/12/31 08:40:01;;;;;;;;;;;9.40;99.90;;;;;;5104922;27;19926;-91
2023/12/31 08:42:26;;;;;;;;;;;9.40;99.90;;;;;;5101193;28;19915;-91
2023/12/31 08:44:52;;;;;;;;;;;9.40;99.90;;;;;;5100643;28;19903;-89
2023/12/31 08:47:18;;;;;;;;;;;9.40;99.90;;;;;;5096618;28;19930;-91
2023/12/31 08:49:43;;;;;;;;;;;9.40;99.90;;;;;;5098101;28;19922;-91
2023/12/31 08:52:09;;;;;;;;;;;9.40;99.90;;;;;;5104242;28;19904;-91
2023/12/31 08:54:34;;;;;;;;;;;9.40;99.90;;;;;;5102456;28;19963;-90
2023/12/31 08:57:00;;;;;;;;;;;9.50;99.90;;;;;;5109572;28;19971;-87
2023/12/31 08:59:25;;;;;;;;;;;9.40;99.90;;;;;;5106695;28;19904;-88
2023/12/31 09:01:51;;;;;;;;;;;9.40;99.90;;;;;;5101011;28;19912;-89
2023/12/31 09:04:17;;;;;;;;;;;9.50;99.90;;;;;;5105702;28;20355;-88
2023/12/31 09:06:42;;;;;;;;;;;9.40;99.90;;;;;;5097389;28;19904;-90
2023/12/31 09:09:08;;;;;;;;;;;9.40;99.90;;;;;;5113198;28;19937;-88
2023/12/31 09:11:34;;;;;;;;;;;9.30;99.90;;;;;;5108501;28;19908;-90
2023/12/31 09:13:59;;;;;;;;;;;9.30;99.90;;;;;;5101288;28;20341;-88
2023/12/31 09:16:25;;;;;;;;;;;9.20;99.90;;;;;;5101216;28;19908;-88
2023/12/31 09:18:51;;;;;;;;;;;9.20;99.90;;;;;;5106742;28;19925;-89
2023/12/31 09:21:16;;;;;;;;;;;9.20;99.90;;;;;;5107345;28;19904;-89
2023/12/31 09:23:42;;;;;;;;;;;9.20;99.90;;;;;;5100643;28;19904;-88
2023/12/31 09:26:08;;;;;;;;;;;9.20;99.90;;;;;;5098163;28;19912;-88
2023/12/31 09:28:33;;;;;;;;;;;9.20;99.90;;;;;;5110431;27;19960;-89
2023/12/31 09:30:59;;;;;;;;;;;9.20;99.90;;;;;;5110069;28;19911;-89
2023/12/31 09:33:24;;;;;;;;;;;9.20;99.90;;;;;;5108702;28;19914;-87
2023/12/31 09:35:50;;;;;;;;;;;9.30;99.90;;;;;;5107061;28;19911;-89
2023/12/31 09:38:15;;;;;;;;;;;9.30;99.90;;;;;;5110395;28;19936;-86
2023/12/31 09:40:41;;;;;;;;;;;9.30;99.90;;;;;;5105958;28;19915;-92
2023/12/31 09:43:08;;;;;;;;;;;9.30;99.90;;;;;;5113147;28;20002;-91
2023/12/31 09:45:34;;;;;;;;;;;9.40;99.90;;;;;;5108887;28;19903;-92
2023/12/31 09:48:00;;;;;;;;;;;9.40;99.90;;;;;;5108417;28;19968;-92
2023/12/31 09:50:26;;;;;;;;;;;9.50;99.90;;;;;;5112509;28;20377;-91
2023/12/31 09:52:53;;;;;;;;;;;9.40;99.90;;;;;;5106915;28;19907;-87
2023/12/31 09:55:20;;;;;;;;;;;9.50;99.90;;;;;;5110091;28;20635;-92
2023/12/31 09:57:47;;;;;;;;;;;9.50;99.90;;;;;;5105879;28;19931;-86
2023/12/31 10:00:13;;;;;;;;;;;9.50;99.90;;;;;;5109136;28;19911;-91
2023/12/31 10:02:39;;;;;;;;;;;9.50;99.90;;;;;;5111494;28;19971;-86
2023/12/31 10:05:05;;;;;;;;;;;9.60;99.90;;;;;;5104335;28;20323;-92
2023/12/31 10:07:30;;;;;;;;;;;9.60;99.90;;;;;;5111203;28;19918;-92
2023/12/31 10:09:56;;;;;;;;;;;9.60;99.90;;;;;;5109380;28;19908;-91
2023/12/31 10:12:22;;;;;;;;;;;9.60;99.90;;;;;;5108828;28;19911;-87
2023/12/31 10:14:49;;;;;;;;;;;9.60;99.90;;;;;;5112248;28;19914;-88
2023/12/31 10:17:15;;;;;;;;;;;9.60;99.90;;;;;;5107118;28;19916;-93
2023/12/31 10:19:41;;;;;;;;;;;9.70;99.90;;;;;;5092046;28;19978;-89
2023/12/31 10:22:10;;;;;;;;;;;9.60;99.90;;;;;;5107883;28;20328;-86
2023/12/31 10:24:36;;;;;;;;;;;9.60;99.90;;;;;;5109098;28;20008;-92
2023/12/31 10:27:05;;;;;;;;;;;9.50;99.90;;;;;;5104283;28;19908;-85
2023/12/31 10:29:33;;;;;;;;;;;9.50;99.90;;;;;;5110711;28;19974;-88
2023/12/31 10:31:59;;;;;;;;;;;9.50;99.90;;;;;;5099856;28;20343;-82
2023/12/31 10:34:25;;;;;;;;;;;9.40;99.90;;;;;;5106199;28;19912;-82
2023/12/31 10:37:00;;;;;;;;;;;9.40;99.90;;;;;;5103292;28;20414;-87
2023/12/31 10:39:27;;;;;;;;;;;9.30;99.90;;;;;;5104797;28;19907;-83
2023/12/31 10:41:56;;;;;;;;;;;9.30;99.90;;;;;;5104492;28;19912;-87
2023/12/31 10:44:23;;;;;;;;;;;9.20;99.90;;;;;;5102694;28;19908;-85
2023/12/31 10:46:48;;;;;;;;;;;9.10;99.90;;;;;;5106380;28;20391;-87
2023/12/31 10:49:15;;;;;;;;;;;9.10;99.90;;;;;;5103688;28;19908;-85
2023/12/31 10:51:42;;;;;;;;;;;9.00;99.90;;;;;;5101351;28;19910;-87
2023/12/31 10:54:08;;;;;;;;;;;8.90;99.90;;;;;;5103675;28;19907;-85
2023/12/31 10:56:34;;;;;;;;;;;8.80;99.90;;;;;;5104673;28;19924;-83
2023/12/31 10:59:01;;;;;;;;;;;8.80;99.90;;;;;;5103193;28;19922;-87
2023/12/31 11:01:27;;;;;;;;;;;8.70;99.90;;;;;;5104677;28;19907;-82
2023/12/31 11:03:53;;;;;;;;;;;8.70;99.90;;;;;;5105385;28;19916;-85
2023/12/31 11:06:19;;;;;;;;;;;8.70;99.90;;;;;;5101327;28;19959;-84
2023/12/31 11:08:45;;;;;;;;;;;8.70;99.90;;;;;;5109737;28;19908;-82
2023/12/31 11:11:11;;;;;;;;;;;8.60;99.90;;;;;;5106747;28;19908;-82
2023/12/31 11:13:38;;;;;;;;;;;8.60;99.90;;;;;;5110026;28;20015;-82
2023/12/31 11:16:05;;;;;;;;;;;8.60;99.90;;;;;;5108241;28;19912;-80
2023/12/31 11:18:32;;;;;;;;;;;8.60;99.90;;;;;;5107668;28;19908;-82
2023/12/31 11:21:01;;;;;;;;;;;8.60;99.90;;;;;;5104331;28;19915;-82
2023/12/31 11:23:35;;;;;;;;;;;8.70;99.90;;;;;;5107405;28;19943;-80
2023/12/31 11:26:02;;;;;;;;;;;8.70;99.90;;;;;;5107734;28;19908;-82
2023/12/31 11:28:28;;;;;;;;;;;8.70;99.90;;;;;;5110020;28;19915;-79
2023/12/31 11:30:58;;;;;;;;;;;8.80;99.90;;;;;;5110902;28;19911;-82
2023/12/31 11:33:43;;;;;;;;;;;8.80;99.90;;;;;;5098374;28;20006;-80
2023/12/31 11:36:12;;;;;;;;;;;8.90;99.90;;;;;;5104080;28;20032;-80
2023/12/31 11:38:50;;;;;;;;;;;8.90;99.90;;;;;;5104639;28;19907;-80
2023/12/31 11:41:17;;;;;;;;;;;9.00;99.90;;;;;;5107276;28;19931;-81
2023/12/31 11:43:44;;;;;;;;;;;9.00;99.90;;;;;;5108040;28;19907;-81
2023/12/31 11:46:10;;;;;;;;;;;9.00;99.90;;;;;;5103547;28;19915;-82
2023/12/31 11:48:37;;;;;;;;;;;9.00;99.90;;;;;;5108931;28;20367;-81
2023/12/31 11:51:03;;;;;;;;;;;9.20;99.90;;;;;;5101348;28;20020;-82
2023/12/31 11:53:46;;;;;;;;;;;9.40;99.90;;;;;;5106653;28;19950;-82
2023/12/31 11:56:12;;;;;;;;;;;9.50;99.90;;;;;;5105706;28;19973;-80
2023/12/31 11:58:38;;;;;;;;;;;9.60;99.90;;;;;;5108352;27;20441;-83
2023/12/31 12:01:03;;;;;;;;;;;9.60;99.90;;;;;;5104696;28;19916;-83
2023/12/31 12:03:29;;;;;;;;;;;9.60;99.90;;;;;;5103536;28;19908;-83
2023/12/31 12:05:54;;;;;;;;;;;9.50;99.90;;;;;;5104669;28;20038;-84
2023/12/31 12:08:20;;;;;;;;;;;9.40;99.90;;;;;;5107069;28;19994;-81
2023/12/31 12:10:46;;;;;;;;;;;9.40;99.90;;;;;;5107568;28;19912;-82
2023/12/31 12:13:12;;;;;;;;;;;9.30;99.90;;;;;;5103676;28;19908;-81
2023/12/31 12:15:37;;;;;;;;;;;9.20;99.90;;;;;;5109304;28;19926;-81
2023/12/31 12:18:26;;;;;;;;;;;9.20;99.90;;;;;;5103430;28;19919;-81
2023/12/31 12:20:52;;;;;;;;;;;9.20;99.90;;;;;;5105594;28;19910;-84
2023/12/31 12:23:18;;;;;;;;;;;9.20;99.90;;;;;;5103636;28;19915;-84
2023/12/31 12:25:44;;;;;;;;;;;9.10;99.90;;;;;;5102816;28;19912;-82
2023/12/31 12:28:10;;;;;;;;;;;9.10;99.90;;;;;;5102541;28;19908;-82
2023/12/31 12:30:38;;;;;;;;;;;9.00;99.90;;;;;;5109270;28;19904;-82
2023/12/31 12:33:04;;;;;;;;;;;9.00;99.90;;;;;;5102993;28;20606;-82
2023/12/31 12:35:31;;;;;;;;;;;9.20;99.90;;;;;;5104243;28;19908;-83
2023/12/31 12:37:57;;;;;;;;;;;9.20;99.90;;;;;;5104028;28;19915;-83
2023/12/31 12:40:22;;;;;;;;;;;9.20;99.90;;;;;;5104801;28;19904;-81
2023/12/31 12:42:48;;;;;;;;;;;9.30;99.90;;;;;;5107480;28;19911;-84
2023/12/31 12:45:14;;;;;;;;;;;9.40;99.90;;;;;;5104228;28;19912;-83
2023/12/31 12:47:43;;;;;;;;;;;9.40;99.90;;;;;;5104545;28;19988;-82
2023/12/31 12:50:09;;;;;;;;;;;9.40;99.90;;;;;;5104551;28;20335;-83
2023/12/31 12:52:35;;;;;;;;;;;9.50;99.90;;;;;;5102151;28;19939;-85
2023/12/31 12:55:00;;;;;;;;;;;9.50;99.90;;;;;;5104350;28;19942;-83
2023/12/31 12:57:26;;;;;;;;;;;9.50;99.90;;;;;;5104809;28;19922;-81
2023/12/31 12:59:52;;;;;;;;;;;9.60;99.90;;;;;;5110283;28;19911;-84
2023/12/31 13:02:17;;;;;;;;;;;9.50;99.90;;;;;;5106280;28;19904;-82
2023/12/31 13:04:45;;;;;;;;;;;9.50;99.90;;;;;;5101713;28;19912;-84
2023/12/31 13:07:10;;;;;;;;;;;9.50;99.90;;;;;;5098587;28;19985;-84
2023/12/31 13:09:36;;;;;;;;;;;9.60;99.90;;;;;;5103033;28;20038;-83
2023/12/31 13:12:03;;;;;;;;;;;9.60;99.90;;;;;;5105617;28;19907;-85
2023/12/31 13:14:28;;;;;;;;;;;9.60;99.90;;;;;;5104732;28;19908;-85
2023/12/31 13:16:54;;;;;;;;;;;9.60;99.90;;;;;;5101489;28;19914;-85
2023/12/31 13:19:21;;;;;;;;;;;9.70;99.90;;;;;;5105294;28;19919;-82
2023/12/31 13:21:47;;;;;;;;;;;9.70;99.90;;;;;;5104427;28;19988;-83
2023/12/31 13:24:13;;;;;;;;;;;9.80;99.90;;;;;;5106764;28;19910;-84
2023/12/31 13:26:38;;;;;;;;;;;9.90;99.90;;;;;;5106381;28;19908;-83
2023/12/31 13:29:04;;;;;;;;;;;9.90;99.90;;;;;;5103580;28;19934;-85
2023/12/31 13:31:30;;;;;;;;;;;10.00;99.90;;;;;;5103897;28;19907;-84
2023/12/31 13:33:56;;;;;;;;;;;10.00;99.90;;;;;;5106990;28;19953;-83
2023/12/31 13:36:22;;;;;;;;;;;10.00;99.90;;;;;;5106110;28;20390;-84
2023/12/31 13:38:47;;;;;;;;;;;10.20;99.90;;;;;;5109750;28;19911;-85
2023/12/31 13:41:13;;;;;;;;;;;10.30;99.90;;;;;;5101296;28;19937;-85
2023/12/31 13:43:38;;;;;;;;;;;10.30;99.90;;;;;;5111165;28;20002;-88
2023/12/31 13:46:05;;;;;;;;;;;10.30;99.90;;;;;;5104689;28;19904;-84
2023/12/31 13:48:31;;;;;;;;;;;10.20;99.90;;;;;;5110239;28;19907;-89
2023/12/31 13:50:57;;;;;;;;;;;10.20;99.90;;;;;;5101115;28;19919;-86
2023/12/31 13:53:22;;;;;;;;;;;10.20;99.90;;;;;;5102725;28;19979;-84
2023/12/31 13:55:48;;;;;;;;;;;10.20;99.90;;;;;;5102980;28;19919;-83
2023/12/31 13:58:14;;;;;;;;;;;10.20;99.90;;;;;;5105280;28;19912;-85
2023/12/31 14:00:47;;;;;;;;;;;10.20;99.90;;;;;;5100552;28;19911;-85
2023/12/31 14:03:13;;;;;;;;;;;10.20;99.90;;;;;;5106840;28;19943;-84